Terminal Aerodrome Forecast
Issued by NWS

Home | Current Version | Previous Version | Text Only | Print | Product List | Glossary On
Versions: 1 2 3 4 5 6 7 8 9 10 11 12 13 14 15 16 17
000
FTUS42 KMLB 291700
TAFLEE
TAF
KLEE 291739Z 2918/3018 28010KT P6SM SCT035 SCT080 BKN250
     FM300000 24005KT P6SM FEW040 SCT250
     FM301400 01004KT P6SM SCT025=

USA.gov is the U.S. government's official web portal to all federal, state and local government web resources and services.